Baitag, Mongolia
Current Conditions -  °F | °C
As of 5:30 AM on Thursday 23 Oct 2014 (Local Time) from ZWWW Reporting Station
Clear Clear  
Wind Chill: 11°   Ceiling: Unl
Heat Index: 11°   Visibility: 5mi
Dew Point:   Wind: 7mph
Humidity: 62%   Direction: 140°SE
Pressure: 30.03"   Gusts: NA
Location:  46.12°N, 91.47°E
Report Text: ZWWW 222130Z 14003MPS 8000 NSC 11/04 Q1017 NOSIG
Loading
Personal Weather Stations






























Interactive Weather Map
Tropical Storm Tracking
New forecast layout! Learn more

10-Day Weather Forecast

Advertisements
Track Severe Weather on mobile